createdAt,value
2017-09-09T00:00:35.871Z,976.3
2017-09-09T00:01:36.526Z,976.2
2017-09-09T00:02:37.179Z,976.2
2017-09-09T00:03:37.835Z,976.1
2017-09-09T00:04:38.788Z,976.1
2017-09-09T00:05:39.445Z,976.1
2017-09-09T00:06:40.102Z,976.0
2017-09-09T00:07:40.756Z,976.1
2017-09-09T00:08:41.410Z,976.1
2017-09-09T00:09:42.315Z,976.1
2017-09-09T00:10:42.971Z,976.1
2017-09-09T00:11:43.627Z,976.3
2017-09-09T00:12:44.282Z,976.1
2017-09-09T00:13:44.937Z,976.1
2017-09-09T00:14:45.842Z,976.1
2017-09-09T00:15:46.496Z,976.1
2017-09-09T00:16:47.187Z,976.0
2017-09-09T00:17:47.842Z,976.0
2017-09-09T00:18:48.498Z,976.1
2017-09-09T00:19:49.404Z,976.0
2017-09-09T00:20:50.058Z,975.8
2017-09-09T00:21:50.712Z,975.8
2017-09-09T00:22:51.367Z,975.8
2017-09-09T00:23:52.020Z,975.8
2017-09-09T00:24:52.975Z,975.9
2017-09-09T00:25:53.630Z,975.8
2017-09-09T00:26:54.283Z,975.8
2017-09-09T00:27:54.939Z,975.8
2017-09-09T00:28:55.594Z,975.9
2017-09-09T00:29:56.501Z,975.7
2017-09-09T00:30:57.157Z,975.7
2017-09-09T00:31:57.813Z,975.7
2017-09-09T00:32:58.466Z,975.7
2017-09-09T00:33:59.126Z,975.6
2017-09-09T00:35:00.111Z,975.7
2017-09-09T00:36:00.801Z,975.7
2017-09-09T00:37:01.458Z,975.8
2017-09-09T00:38:02.162Z,975.7
2017-09-09T00:39:02.816Z,975.7
2017-09-09T00:40:03.770Z,975.7
2017-09-09T00:41:04.426Z,975.8
2017-09-09T00:42:05.081Z,975.7
2017-09-09T00:43:05.736Z,975.7
2017-09-09T00:44:06.391Z,975.7
2017-09-09T00:45:07.344Z,975.6
2017-09-09T00:46:08.003Z,975.6
2017-09-09T00:47:08.700Z,975.7
2017-09-09T00:48:09.356Z,975.6
2017-09-09T00:49:10.013Z,975.6
2017-09-09T00:50:10.919Z,975.6
2017-09-09T00:51:11.573Z,975.6
2017-09-09T00:52:12.227Z,975.6
2017-09-09T00:53:12.918Z,975.6
2017-09-09T00:54:13.573Z,975.5
2017-09-09T00:55:14.477Z,975.6
2017-09-09T00:56:15.134Z,975.5
2017-09-09T00:57:15.788Z,975.6
2017-09-09T00:58:16.445Z,975.6
2017-09-09T00:59:17.099Z,975.5
2017-09-09T01:00:18.054Z,975.5
2017-09-09T01:01:18.708Z,975.4
2017-09-09T01:02:19.362Z,975.4
2017-09-09T01:03:20.017Z,975.4
2017-09-09T01:04:20.672Z,975.4
2017-09-09T01:05:21.578Z,975.5
2017-09-09T01:06:22.234Z,975.5
2017-09-09T01:07:22.888Z,975.4
2017-09-09T01:08:23.542Z,975.4
2017-09-09T01:09:24.196Z,975.5
2017-09-09T01:10:25.102Z,975.4
2017-09-09T01:11:25.759Z,975.4
2017-09-09T01:12:26.412Z,975.4
2017-09-09T01:13:27.067Z,975.3
2017-09-09T01:14:27.741Z,975.3
2017-09-09T01:15:28.718Z,975.4
2017-09-09T01:16:29.352Z,975.4
2017-09-09T01:17:30.006Z,975.3
2017-09-09T01:18:30.664Z,975.3
2017-09-09T01:19:31.316Z,975.2
2017-09-09T01:20:32.221Z,975.2
2017-09-09T01:21:32.875Z,975.2
2017-09-09T01:22:33.537Z,975.2
2017-09-09T01:23:34.185Z,975.1
2017-09-09T01:24:34.844Z,975.1
2017-09-09T01:25:35.747Z,975.0
2017-09-09T01:26:36.400Z,975.2
2017-09-09T01:27:37.055Z,975.1
2017-09-09T01:28:37.713Z,975.0
2017-09-09T01:29:38.377Z,975.2
2017-09-09T01:30:39.322Z,975.1
2017-09-09T01:31:39.974Z,975.1
2017-09-09T01:32:40.630Z,975.1
2017-09-09T01:33:41.285Z,975.1
2017-09-09T01:34:41.940Z,975.1
2017-09-09T01:35:42.848Z,975.1
2017-09-09T01:36:43.502Z,975.0
2017-09-09T01:37:44.157Z,975.0
2017-09-09T01:38:44.814Z,974.9
2017-09-09T01:39:45.477Z,975.0
2017-09-09T01:40:46.380Z,974.9
2017-09-09T01:41:47.040Z,974.9
2017-09-09T01:42:47.694Z,974.9
2017-09-09T01:43:48.349Z,974.9
2017-09-09T01:44:49.004Z,974.8
2017-09-09T01:45:49.908Z,974.8
2017-09-09T01:46:50.562Z,974.8
2017-09-09T01:47:51.217Z,974.9
2017-09-09T01:48:51.871Z,974.8
2017-09-09T01:49:52.528Z,974.7
2017-09-09T01:50:53.435Z,974.7
2017-09-09T01:51:54.087Z,974.7
2017-09-09T01:52:54.743Z,974.7
2017-09-09T01:53:55.409Z,974.7
2017-09-09T01:54:56.086Z,974.7
2017-09-09T01:55:57.041Z,974.7
2017-09-09T01:56:57.694Z,974.6
2017-09-09T01:57:58.385Z,974.6
2017-09-09T01:58:59.040Z,974.6
2017-09-09T01:59:59.694Z,974.6
2017-09-09T02:01:00.599Z,974.6
2017-09-09T02:02:01.254Z,974.6
2017-09-09T02:03:01.909Z,974.6
2017-09-09T02:04:02.568Z,974.5
2017-09-09T02:05:03.217Z,974.5
2017-09-09T02:06:04.121Z,974.6
2017-09-09T02:07:04.777Z,974.5
2017-09-09T02:08:05.432Z,974.5
2017-09-09T02:09:06.086Z,974.5
2017-09-09T02:10:06.740Z,974.5
2017-09-09T02:11:07.947Z,974.5
2017-09-09T02:12:08.601Z,974.4
2017-09-09T02:13:09.256Z,974.5
2017-09-09T02:14:10.019Z,974.4
2017-09-09T02:15:10.673Z,974.4
2017-09-09T02:16:11.580Z,974.4
2017-09-09T02:17:12.234Z,974.3
2017-09-09T02:18:12.888Z,974.4
2017-09-09T02:19:13.544Z,974.4
2017-09-09T02:20:14.198Z,974.5
2017-09-09T02:21:15.103Z,974.4
2017-09-09T02:22:15.854Z,974.4
2017-09-09T02:23:16.507Z,974.4
2017-09-09T02:24:17.161Z,974.3
2017-09-09T02:25:17.816Z,974.3
2017-09-09T02:26:18.725Z,974.3
2017-09-09T02:27:19.374Z,974.4
2017-09-09T02:28:20.029Z,974.3
2017-09-09T02:29:20.684Z,974.3
2017-09-09T02:30:21.338Z,974.3
2017-09-09T02:31:22.294Z,974.3
2017-09-09T02:32:22.950Z,974.3
2017-09-09T02:33:23.605Z,974.3
2017-09-09T02:34:24.259Z,974.2
2017-09-09T02:35:24.914Z,974.2
2017-09-09T02:36:25.820Z,974.2
2017-09-09T02:37:26.540Z,974.2
2017-09-09T02:38:27.190Z,974.2
2017-09-09T02:39:27.846Z,974.2
2017-09-09T02:40:28.501Z,974.2
2017-09-09T02:41:29.405Z,974.2
2017-09-09T02:42:30.059Z,974.2
2017-09-09T02:43:30.715Z,974.2
2017-09-09T02:44:31.421Z,974.1
2017-09-09T02:45:32.073Z,974.1
2017-09-09T02:46:33.028Z,974.2
2017-09-09T02:47:33.683Z,974.1
2017-09-09T02:48:34.338Z,974.1
2017-09-09T02:49:34.992Z,974.0
2017-09-09T02:50:35.648Z,974.0
2017-09-09T02:51:36.553Z,974.0
2017-09-09T02:52:37.209Z,974.1
2017-09-09T02:53:37.863Z,974.0
2017-09-09T02:54:38.519Z,974.0
2017-09-09T02:55:39.173Z,974.0
2017-09-09T02:56:40.079Z,974.0
2017-09-09T02:57:40.735Z,974.0
2017-09-09T02:58:41.394Z,973.9
2017-09-09T02:59:42.050Z,973.9
2017-09-09T03:00:42.705Z,973.9
2017-09-09T03:01:43.661Z,973.9
2017-09-09T03:02:44.315Z,973.9
2017-09-09T03:03:44.971Z,973.8
2017-09-09T03:04:45.625Z,973.8
2017-09-09T03:05:46.280Z,973.9
2017-09-09T03:06:47.218Z,973.9
2017-09-09T03:07:47.875Z,973.8
2017-09-09T03:08:48.528Z,973.8
2017-09-09T03:09:49.183Z,973.8
2017-09-09T03:10:49.839Z,973.7
2017-09-09T03:11:50.781Z,973.7
2017-09-09T03:12:51.436Z,973.7
2017-09-09T03:13:52.092Z,973.7
2017-09-09T03:14:52.747Z,973.7
2017-09-09T03:15:53.404Z,973.7
2017-09-09T03:16:54.366Z,973.6
2017-09-09T03:17:55.049Z,973.7
2017-09-09T03:18:55.704Z,973.7
2017-09-09T03:19:56.359Z,973.7
2017-09-09T03:20:57.017Z,973.7
2017-09-09T03:21:57.921Z,973.7
2017-09-09T03:22:58.576Z,973.6
2017-09-09T03:23:59.232Z,973.7
2017-09-09T03:24:59.886Z,973.6
2017-09-09T03:26:00.549Z,973.6
2017-09-09T03:27:01.453Z,973.6
2017-09-09T03:28:02.107Z,973.6
2017-09-09T03:29:02.770Z,973.5
2017-09-09T03:30:03.417Z,973.5
2017-09-09T03:31:04.073Z,973.5
2017-09-09T03:32:05.026Z,973.4
2017-09-09T03:33:05.681Z,973.4
2017-09-09T03:34:06.338Z,973.5
2017-09-09T03:35:06.992Z,973.4
2017-09-09T03:36:07.647Z,973.4
2017-09-09T03:37:08.552Z,973.4
2017-09-09T03:38:09.205Z,973.4
2017-09-09T03:39:09.861Z,973.4
2017-09-09T03:40:10.514Z,973.4
2017-09-09T03:41:11.169Z,973.5
2017-09-09T03:42:12.124Z,973.4
2017-09-09T03:43:12.780Z,973.4
2017-09-09T03:44:13.435Z,973.5
2017-09-09T03:45:14.091Z,973.4
2017-09-09T03:46:14.744Z,973.5
2017-09-09T03:47:15.648Z,973.4
2017-09-09T03:48:16.303Z,973.5
2017-09-09T03:49:16.958Z,973.5
2017-09-09T03:50:17.613Z,973.5
2017-09-09T03:51:18.268Z,973.5
2017-09-09T03:52:19.172Z,973.5
2017-09-09T03:53:19.828Z,973.5
2017-09-09T03:54:20.483Z,973.4
2017-09-09T03:55:21.139Z,973.5
2017-09-09T03:56:21.792Z,973.4
2017-09-09T03:57:22.701Z,973.4
2017-09-09T03:58:23.355Z,973.5
2017-09-09T03:59:24.012Z,973.4
2017-09-09T04:00:24.666Z,973.4
2017-09-09T04:01:25.319Z,973.4
2017-09-09T04:02:26.225Z,973.4
2017-09-09T04:03:26.880Z,973.4
2017-09-09T04:04:27.536Z,973.3
2017-09-09T04:05:28.190Z,973.4
2017-09-09T04:06:28.843Z,973.3
2017-09-09T04:07:29.750Z,973.4
2017-09-09T04:08:30.406Z,973.3
2017-09-09T04:09:31.059Z,973.3
2017-09-09T04:10:31.716Z,973.3
2017-09-09T04:11:32.369Z,973.4
2017-09-09T04:12:33.276Z,973.3
2017-09-09T04:13:33.931Z,973.3
2017-09-09T04:14:34.586Z,973.3
2017-09-09T04:15:35.241Z,973.3
2017-09-09T04:16:35.896Z,973.3
2017-09-09T04:17:36.850Z,973.2
2017-09-09T04:18:37.507Z,973.2
2017-09-09T04:19:38.160Z,973.3
2017-09-09T04:20:38.816Z,973.2
2017-09-09T04:21:39.469Z,973.2
2017-09-09T04:22:40.410Z,973.2
2017-09-09T04:23:41.063Z,973.1
2017-09-09T04:24:41.719Z,973.2
2017-09-09T04:25:42.373Z,973.2
2017-09-09T04:26:43.028Z,973.2
2017-09-09T04:27:43.984Z,973.2
2017-09-09T04:28:44.647Z,973.2
2017-09-09T04:29:45.298Z,973.2
2017-09-09T04:30:45.952Z,973.2
2017-09-09T04:31:46.610Z,973.1
2017-09-09T04:32:47.512Z,973.2
2017-09-09T04:33:48.167Z,973.1
2017-09-09T04:34:48.857Z,973.1
2017-09-09T04:35:49.512Z,973.1
2017-09-09T04:36:50.169Z,973.1
2017-09-09T04:37:51.074Z,973.0
2017-09-09T04:38:51.729Z,973.0
2017-09-09T04:39:52.385Z,973.0
2017-09-09T04:40:53.041Z,973.0
2017-09-09T04:41:53.697Z,973.0
2017-09-09T04:42:54.604Z,972.9
2017-09-09T04:43:55.259Z,973.0
2017-09-09T04:44:55.914Z,972.9
2017-09-09T04:45:56.572Z,972.9
2017-09-09T04:46:57.230Z,972.8
2017-09-09T04:47:58.136Z,972.8
2017-09-09T04:48:58.793Z,972.8
2017-09-09T04:49:59.452Z,972.7
2017-09-09T04:51:00.107Z,972.7
2017-09-09T04:52:00.764Z,972.7
2017-09-09T04:53:01.724Z,972.7
2017-09-09T04:54:02.380Z,972.8
2017-09-09T04:55:03.039Z,972.7
2017-09-09T04:56:03.695Z,972.7
2017-09-09T04:57:04.353Z,972.7
2017-09-09T04:58:05.345Z,972.7
2017-09-09T04:59:06.005Z,972.7
2017-09-09T05:00:06.695Z,972.8
2017-09-09T05:01:07.351Z,972.8
2017-09-09T05:02:08.045Z,972.6
2017-09-09T05:03:08.962Z,972.7
2017-09-09T05:04:09.613Z,972.6
2017-09-09T05:05:10.272Z,972.5
2017-09-09T05:06:10.929Z,972.6
2017-09-09T05:07:11.586Z,972.6
2017-09-09T05:08:12.493Z,972.6
2017-09-09T05:09:13.151Z,972.7
2017-09-09T05:10:13.841Z,972.7
2017-09-09T05:11:14.499Z,972.7
2017-09-09T05:12:15.156Z,972.6
2017-09-09T05:13:16.115Z,972.6
2017-09-09T05:14:16.770Z,972.7
2017-09-09T05:15:17.428Z,972.7
2017-09-09T05:16:18.084Z,972.7
2017-09-09T05:17:18.747Z,972.8
2017-09-09T05:18:19.654Z,972.7
2017-09-09T05:19:20.311Z,972.7
2017-09-09T05:20:20.967Z,972.7
2017-09-09T05:21:21.624Z,972.8
2017-09-09T05:22:22.280Z,972.8
2017-09-09T05:23:23.237Z,972.8
2017-09-09T05:24:23.895Z,972.7
2017-09-09T05:25:24.551Z,972.7
2017-09-09T05:26:25.212Z,972.6
2017-09-09T05:27:25.870Z,972.7
2017-09-09T05:28:26.778Z,972.7
2017-09-09T05:29:27.437Z,972.7
2017-09-09T05:30:28.095Z,972.7
2017-09-09T05:31:28.753Z,972.7
2017-09-09T05:32:29.414Z,972.7
2017-09-09T05:33:30.320Z,972.8
2017-09-09T05:34:30.981Z,972.8
2017-09-09T05:35:31.639Z,972.8
2017-09-09T05:36:32.297Z,972.8
2017-09-09T05:37:32.955Z,972.7
2017-09-09T05:38:33.912Z,972.7
2017-09-09T05:39:34.573Z,972.7
2017-09-09T05:40:35.234Z,972.7
2017-09-09T05:41:35.893Z,972.8
2017-09-09T05:42:36.553Z,972.7
2017-09-09T05:43:37.512Z,972.7
2017-09-09T05:44:38.171Z,972.8
2017-09-09T05:45:38.831Z,972.6
2017-09-09T05:46:39.492Z,972.8
2017-09-09T05:47:40.150Z,972.8
2017-09-09T05:48:41.110Z,973.1
2017-09-09T05:49:41.771Z,972.9
2017-09-09T05:50:42.427Z,972.8
2017-09-09T05:51:43.088Z,972.7
2017-09-09T05:52:43.746Z,972.7
2017-09-09T05:53:44.656Z,972.7
2017-09-09T05:54:45.314Z,972.7
2017-09-09T05:55:45.974Z,972.8
2017-09-09T05:56:46.635Z,973.0
2017-09-09T05:57:47.298Z,973.0
2017-09-09T05:58:48.452Z,972.8
2017-09-09T05:59:49.111Z,972.8
2017-09-09T06:00:49.772Z,972.8
2017-09-09T06:01:50.429Z,972.7
2017-09-09T06:02:51.089Z,972.7
2017-09-09T06:03:51.998Z,972.7
2017-09-09T06:04:52.659Z,972.8
2017-09-09T06:05:53.317Z,972.7
2017-09-09T06:06:53.975Z,972.7
2017-09-09T06:07:54.635Z,972.7
2017-09-09T06:08:55.545Z,972.7
2017-09-09T06:09:56.205Z,972.7
2017-09-09T06:10:56.862Z,972.6
2017-09-09T06:11:57.523Z,972.6
2017-09-09T06:12:58.182Z,972.6
2017-09-09T06:13:59.143Z,972.7
2017-09-09T06:14:59.805Z,972.7
2017-09-09T06:16:00.466Z,972.6
2017-09-09T06:17:01.125Z,972.5
2017-09-09T06:18:01.819Z,972.7
2017-09-09T06:19:02.744Z,972.7
2017-09-09T06:20:03.403Z,972.6
2017-09-09T06:21:04.062Z,972.5
2017-09-09T06:22:04.723Z,972.5
2017-09-09T06:23:05.381Z,972.5
2017-09-09T06:24:06.292Z,972.6
2017-09-09T06:25:06.950Z,972.5
2017-09-09T06:26:07.660Z,972.5
2017-09-09T06:27:08.322Z,972.5
2017-09-09T06:28:08.981Z,972.5
2017-09-09T06:29:09.889Z,972.5
2017-09-09T06:30:10.548Z,972.5
2017-09-09T06:31:11.208Z,972.5
2017-09-09T06:32:11.867Z,972.6
2017-09-09T06:33:12.526Z,972.4
2017-09-09T06:34:13.521Z,972.4
2017-09-09T06:35:14.181Z,972.5
2017-09-09T06:36:14.841Z,972.5
2017-09-09T06:37:15.499Z,972.5
2017-09-09T06:38:16.194Z,972.6
2017-09-09T06:39:17.103Z,972.5
2017-09-09T06:40:17.764Z,972.4
2017-09-09T06:41:18.422Z,972.4
2017-09-09T06:42:19.082Z,972.4
2017-09-09T06:43:19.742Z,972.3
2017-09-09T06:44:20.700Z,972.4
2017-09-09T06:45:21.361Z,972.4
2017-09-09T06:46:22.025Z,972.3
2017-09-09T06:47:22.680Z,972.3
2017-09-09T06:48:23.342Z,972.3
2017-09-09T06:49:24.252Z,972.1
2017-09-09T06:50:24.913Z,972.2
2017-09-09T06:51:25.573Z,972.3
2017-09-09T06:52:26.243Z,972.3
2017-09-09T06:53:26.936Z,972.5
2017-09-09T06:54:27.846Z,972.3
2017-09-09T06:55:28.541Z,972.3
2017-09-09T06:56:29.201Z,972.3
2017-09-09T06:57:29.861Z,972.3
2017-09-09T06:58:30.522Z,972.3
2017-09-09T06:59:31.429Z,972.2
2017-09-09T07:00:32.092Z,972.2
2017-09-09T07:01:32.750Z,972.2
2017-09-09T07:02:33.410Z,972.0
2017-09-09T07:03:34.069Z,972.1
2017-09-09T07:04:35.018Z,972.1
2017-09-09T07:05:35.710Z,972.1
2017-09-09T07:06:36.369Z,972.0
2017-09-09T07:07:37.028Z,972.0
2017-09-09T07:08:37.722Z,972.0
2017-09-09T07:09:38.630Z,972.0
2017-09-09T07:10:39.296Z,972.0
2017-09-09T07:11:39.950Z,972.0
2017-09-09T07:12:40.610Z,972.1
2017-09-09T07:13:41.270Z,972.2
2017-09-09T07:14:42.178Z,972.3
2017-09-09T07:15:42.839Z,972.4
2017-09-09T07:16:43.499Z,972.3
2017-09-09T07:17:44.160Z,972.3
2017-09-09T07:18:44.820Z,972.4
2017-09-09T07:19:45.778Z,972.3
2017-09-09T07:20:46.439Z,972.3
2017-09-09T07:21:47.097Z,972.2
2017-09-09T07:22:47.767Z,972.3
2017-09-09T07:23:48.417Z,972.3
2017-09-09T07:24:49.328Z,972.4
2017-09-09T07:25:49.989Z,972.3
2017-09-09T07:26:50.691Z,972.4
2017-09-09T07:27:51.348Z,972.3
2017-09-09T07:28:52.006Z,972.3
2017-09-09T07:29:52.916Z,972.2
2017-09-09T07:30:53.576Z,972.3
2017-09-09T07:31:54.237Z,972.4
2017-09-09T07:32:54.897Z,972.4
2017-09-09T07:33:55.557Z,972.4
2017-09-09T07:34:56.473Z,972.4
2017-09-09T07:35:57.127Z,972.4
2017-09-09T07:36:57.788Z,972.3
2017-09-09T07:37:58.448Z,972.3
2017-09-09T07:38:59.109Z,972.2
2017-09-09T07:40:00.054Z,972.1
2017-09-09T07:41:00.751Z,972.0
2017-09-09T07:42:01.445Z,972.2
2017-09-09T07:43:02.104Z,972.2
2017-09-09T07:44:02.801Z,972.1
2017-09-09T07:45:03.712Z,972.0
2017-09-09T07:46:04.371Z,971.9
2017-09-09T07:47:05.033Z,971.9
2017-09-09T07:48:05.692Z,971.9
2017-09-09T07:49:06.352Z,972.1
2017-09-09T07:50:07.263Z,972.2
2017-09-09T07:51:07.924Z,972.4
2017-09-09T07:52:08.601Z,972.5
2017-09-09T07:53:09.310Z,972.6
2017-09-09T07:54:09.969Z,972.6
2017-09-09T07:55:10.879Z,972.6
2017-09-09T07:56:11.539Z,972.7
2017-09-09T07:57:12.201Z,972.7
2017-09-09T07:58:12.861Z,972.7
2017-09-09T07:59:13.556Z,972.8
2017-09-09T08:00:14.464Z,972.7
2017-09-09T08:01:15.127Z,972.7
2017-09-09T08:02:15.784Z,972.8
2017-09-09T08:03:16.444Z,972.9
2017-09-09T08:04:17.103Z,972.9
2017-09-09T08:05:18.013Z,972.9
2017-09-09T08:06:18.673Z,972.9
2017-09-09T08:07:19.332Z,972.9
2017-09-09T08:08:19.994Z,972.9
2017-09-09T08:09:20.650Z,973.0
2017-09-09T08:10:21.563Z,972.9
2017-09-09T08:11:22.219Z,972.7
2017-09-09T08:12:22.878Z,972.6
2017-09-09T08:13:23.540Z,972.7
2017-09-09T08:14:24.199Z,972.7
2017-09-09T08:15:25.110Z,972.7
2017-09-09T08:16:25.770Z,972.7
2017-09-09T08:17:26.427Z,972.6
2017-09-09T08:18:27.086Z,972.6
2017-09-09T08:19:27.746Z,972.7
2017-09-09T08:20:28.658Z,972.7
2017-09-09T08:21:29.318Z,972.7
2017-09-09T08:22:29.977Z,972.6
2017-09-09T08:23:30.638Z,972.6
2017-09-09T08:24:31.296Z,972.5
2017-09-09T08:25:32.208Z,972.6
2017-09-09T08:26:32.869Z,973.0
2017-09-09T08:27:33.527Z,973.0
2017-09-09T08:28:34.186Z,973.0
2017-09-09T08:29:34.845Z,973.0
2017-09-09T08:30:35.762Z,973.0
2017-09-09T08:31:36.455Z,972.9
2017-09-09T08:32:37.167Z,973.0
2017-09-09T08:33:37.828Z,972.8
2017-09-09T08:34:38.489Z,972.9
2017-09-09T08:35:39.399Z,972.8
2017-09-09T08:36:40.058Z,972.8
2017-09-09T08:37:40.718Z,972.8
2017-09-09T08:38:41.377Z,972.8
2017-09-09T08:39:42.044Z,972.8
2017-09-09T08:40:43.005Z,972.7
2017-09-09T08:41:43.665Z,972.8
2017-09-09T08:42:44.327Z,972.8
2017-09-09T08:43:44.987Z,973.0
2017-09-09T08:44:45.645Z,972.9
2017-09-09T08:45:46.555Z,973.0
2017-09-09T08:46:47.216Z,972.9
2017-09-09T08:47:47.880Z,973.0
2017-09-09T08:48:48.541Z,973.0
2017-09-09T08:49:49.196Z,973.0
2017-09-09T08:50:50.109Z,973.0
2017-09-09T08:51:50.809Z,973.0
2017-09-09T08:52:51.473Z,973.1
2017-09-09T08:53:52.135Z,973.2
2017-09-09T08:54:52.796Z,973.2
2017-09-09T08:55:53.707Z,973.3
2017-09-09T08:56:54.368Z,973.3
2017-09-09T08:57:55.069Z,973.4
2017-09-09T08:58:55.759Z,973.3
2017-09-09T08:59:56.417Z,973.3
2017-09-09T09:00:57.328Z,973.4
2017-09-09T09:01:58.025Z,973.5
2017-09-09T09:02:58.687Z,973.5
2017-09-09T09:03:59.347Z,973.4
2017-09-09T09:05:00.009Z,973.5
2017-09-09T09:06:00.919Z,973.4
2017-09-09T09:07:01.583Z,973.6
2017-09-09T09:08:02.242Z,973.5
2017-09-09T09:09:02.905Z,973.5
2017-09-09T09:10:03.568Z,974.0
2017-09-09T09:11:04.517Z,973.6
2017-09-09T09:12:05.180Z,973.8
2017-09-09T09:13:05.843Z,973.5
2017-09-09T09:14:06.540Z,973.6
2017-09-09T09:15:07.201Z,973.6
2017-09-09T09:16:08.168Z,973.7
2017-09-09T09:17:08.831Z,973.5
2017-09-09T09:18:09.497Z,973.5
2017-09-09T09:19:10.163Z,973.4
2017-09-09T09:20:10.826Z,973.4
2017-09-09T09:21:11.788Z,973.4
2017-09-09T09:22:12.451Z,973.4
2017-09-09T09:23:13.114Z,973.4
2017-09-09T09:24:13.777Z,973.4
2017-09-09T09:25:14.440Z,973.4
2017-09-09T09:26:15.403Z,973.6
2017-09-09T09:27:16.071Z,973.5
2017-09-09T09:28:16.735Z,973.6
2017-09-09T09:29:17.396Z,973.6
2017-09-09T09:30:18.061Z,973.6
2017-09-09T09:31:18.971Z,973.6
2017-09-09T09:32:19.635Z,973.8
2017-09-09T09:33:20.297Z,973.7
2017-09-09T09:34:20.962Z,973.7
2017-09-09T09:35:21.627Z,973.7
2017-09-09T09:36:22.546Z,973.6
2017-09-09T09:37:23.206Z,973.9
2017-09-09T09:38:23.870Z,973.7
2017-09-09T09:39:24.533Z,973.6
2017-09-09T09:40:25.196Z,973.7
2017-09-09T09:41:26.162Z,974.0
2017-09-09T09:42:26.824Z,973.7
2017-09-09T09:43:27.488Z,973.7
2017-09-09T09:44:28.149Z,973.8
2017-09-09T09:45:28.815Z,974.4
2017-09-09T09:46:29.738Z,973.5
2017-09-09T09:47:30.392Z,973.4
2017-09-09T09:48:31.057Z,973.4
2017-09-09T09:49:31.722Z,973.3
2017-09-09T09:50:32.424Z,973.3
2017-09-09T09:51:33.336Z,973.4
2017-09-09T09:52:33.999Z,973.3
2017-09-09T09:53:34.702Z,973.3
2017-09-09T09:54:35.368Z,973.3
2017-09-09T09:55:36.030Z,973.4
2017-09-09T09:56:36.943Z,973.4
2017-09-09T09:57:37.609Z,973.6
2017-09-09T09:58:38.273Z,973.7
2017-09-09T09:59:38.937Z,973.6
2017-09-09T10:00:39.603Z,973.6
2017-09-09T10:01:40.519Z,973.6
2017-09-09T10:02:41.184Z,973.5
2017-09-09T10:03:41.846Z,973.5
2017-09-09T10:04:42.511Z,973.5
2017-09-09T10:05:43.173Z,973.6
2017-09-09T10:06:44.087Z,973.5
2017-09-09T10:07:44.750Z,973.7
2017-09-09T10:08:45.414Z,974.9
2017-09-09T10:09:46.117Z,975.0
2017-09-09T10:10:46.817Z,974.3
2017-09-09T10:11:47.785Z,973.8
2017-09-09T10:12:48.450Z,973.8
2017-09-09T10:13:49.115Z,973.6
2017-09-09T10:14:49.779Z,973.7
2017-09-09T10:15:50.445Z,973.7
2017-09-09T10:16:51.361Z,973.8
2017-09-09T10:17:52.025Z,973.8
2017-09-09T10:18:52.694Z,975.1
2017-09-09T10:19:53.361Z,974.3
2017-09-09T10:20:54.024Z,974.0
2017-09-09T10:21:54.940Z,973.9
2017-09-09T10:22:55.606Z,973.9
2017-09-09T10:23:56.272Z,973.9
2017-09-09T10:24:56.937Z,973.9
2017-09-09T10:25:57.603Z,974.2
2017-09-09T10:26:58.571Z,973.9
2017-09-09T10:27:59.237Z,974.0
2017-09-09T10:28:59.904Z,974.1
2017-09-09T10:30:00.570Z,974.3
2017-09-09T10:31:01.235Z,974.2
2017-09-09T10:32:02.202Z,974.3
2017-09-09T10:33:02.902Z,974.4
2017-09-09T10:34:03.568Z,974.2
2017-09-09T10:35:04.241Z,974.1
2017-09-09T10:36:04.939Z,974.2
2017-09-09T10:37:05.855Z,974.2
2017-09-09T10:38:06.522Z,974.1
2017-09-09T10:39:07.188Z,974.0
2017-09-09T10:40:07.856Z,974.0
2017-09-09T10:41:08.522Z,973.9
2017-09-09T10:42:09.446Z,974.0
2017-09-09T10:43:10.111Z,973.9
2017-09-09T10:44:10.811Z,974.0
2017-09-09T10:45:11.479Z,973.9
2017-09-09T10:46:12.140Z,974.0
2017-09-09T10:47:13.108Z,973.8
2017-09-09T10:48:13.817Z,974.0
2017-09-09T10:49:14.484Z,974.0
2017-09-09T10:50:15.149Z,973.9
2017-09-09T10:51:15.812Z,973.9
2017-09-09T10:52:16.728Z,973.8
2017-09-09T10:53:17.393Z,973.9
2017-09-09T10:54:18.063Z,973.9
2017-09-09T10:55:18.722Z,973.9
2017-09-09T10:56:19.388Z,974.1
2017-09-09T10:57:20.352Z,974.2
2017-09-09T10:58:21.012Z,974.0
2017-09-09T10:59:21.676Z,974.1
2017-09-09T11:00:22.338Z,974.1
2017-09-09T11:01:22.999Z,974.1
2017-09-09T11:02:23.964Z,974.0
2017-09-09T11:03:24.628Z,974.1
2017-09-09T11:04:25.290Z,974.0
2017-09-09T11:05:25.953Z,974.3
2017-09-09T11:06:26.616Z,974.2
2017-09-09T11:07:27.530Z,974.1
2017-09-09T11:08:28.195Z,974.2
2017-09-09T11:09:28.860Z,974.3
2017-09-09T11:10:29.523Z,974.2
2017-09-09T11:11:30.186Z,974.2
2017-09-09T11:12:31.101Z,974.2
2017-09-09T11:13:31.766Z,974.2
2017-09-09T11:14:32.464Z,974.2
2017-09-09T11:15:33.130Z,974.3
2017-09-09T11:16:33.795Z,974.4
2017-09-09T11:17:34.759Z,974.4
2017-09-09T11:18:35.422Z,974.2
2017-09-09T11:19:36.091Z,974.3
2017-09-09T11:20:36.756Z,974.4
2017-09-09T11:21:37.422Z,974.3
2017-09-09T11:22:38.334Z,974.3
2017-09-09T11:23:39.001Z,974.3
2017-09-09T11:24:39.665Z,974.2
2017-09-09T11:25:40.330Z,974.1
2017-09-09T11:26:40.995Z,974.2
2017-09-09T11:27:41.912Z,974.2
2017-09-09T11:28:42.612Z,974.2
2017-09-09T11:29:43.276Z,974.2
2017-09-09T11:30:43.940Z,974.1
2017-09-09T11:31:44.604Z,974.1
2017-09-09T11:32:45.525Z,974.2
2017-09-09T11:33:46.182Z,974.1
2017-09-09T11:34:46.882Z,974.2
2017-09-09T11:35:47.546Z,974.1
2017-09-09T11:36:48.216Z,974.2
2017-09-09T11:37:49.179Z,974.1
2017-09-09T11:38:49.877Z,974.2
2017-09-09T11:39:50.542Z,974.3
2017-09-09T11:40:51.209Z,974.4
2017-09-09T11:41:51.872Z,974.3
2017-09-09T11:42:52.785Z,974.4
2017-09-09T11:43:53.449Z,974.4
2017-09-09T11:44:54.113Z,974.4
2017-09-09T11:45:54.777Z,974.4
2017-09-09T11:46:55.441Z,974.5
2017-09-09T11:47:56.354Z,974.5
2017-09-09T11:48:57.018Z,974.5
2017-09-09T11:49:57.685Z,974.5
2017-09-09T11:50:58.350Z,974.5
2017-09-09T11:51:59.012Z,974.4
2017-09-09T11:52:59.933Z,974.4
2017-09-09T11:54:00.591Z,974.4
2017-09-09T11:55:01.254Z,974.4
2017-09-09T11:56:01.919Z,974.4
2017-09-09T11:57:02.585Z,974.4
2017-09-09T11:58:03.500Z,974.5
2017-09-09T11:59:04.164Z,974.5
2017-09-09T12:00:04.829Z,974.5
2017-09-09T12:01:05.494Z,974.5
2017-09-09T12:02:06.163Z,974.5
2017-09-09T12:03:07.123Z,974.5
2017-09-09T12:04:07.793Z,974.6
2017-09-09T12:05:08.467Z,974.5
2017-09-09T12:06:09.152Z,974.5
2017-09-09T12:07:09.817Z,974.6
2017-09-09T12:08:10.731Z,974.6
2017-09-09T12:09:11.397Z,974.7
2017-09-09T12:10:12.057Z,974.7
2017-09-09T12:11:12.738Z,974.6
2017-09-09T12:12:13.399Z,974.7
2017-09-09T12:13:14.314Z,974.6
2017-09-09T12:14:14.979Z,974.6
2017-09-09T12:15:15.643Z,974.6
2017-09-09T12:16:16.306Z,974.5
2017-09-09T12:17:16.969Z,974.5
2017-09-09T12:18:17.930Z,974.5
2017-09-09T12:19:18.592Z,974.6
2017-09-09T12:20:19.256Z,974.5
2017-09-09T12:21:19.919Z,974.5
2017-09-09T12:22:20.582Z,974.5
2017-09-09T12:23:21.495Z,974.6
2017-09-09T12:24:22.156Z,974.5
2017-09-09T12:25:22.817Z,974.6
2017-09-09T12:26:23.478Z,974.6
2017-09-09T12:27:24.140Z,974.6
2017-09-09T12:28:25.090Z,974.6
2017-09-09T12:29:25.751Z,974.6
2017-09-09T12:30:26.414Z,974.6
2017-09-09T12:31:27.075Z,974.7
2017-09-09T12:32:27.738Z,974.6
2017-09-09T12:33:28.651Z,974.7
2017-09-09T12:34:29.310Z,974.7
2017-09-09T12:35:29.972Z,974.6
2017-09-09T12:36:30.632Z,974.6
2017-09-09T12:37:31.293Z,974.6
2017-09-09T12:38:32.206Z,974.5
2017-09-09T12:39:32.872Z,974.5
2017-09-09T12:40:33.531Z,974.5
2017-09-09T12:41:34.193Z,974.5
2017-09-09T12:42:34.856Z,974.4
2017-09-09T12:43:35.819Z,974.4
2017-09-09T12:44:36.484Z,974.5
2017-09-09T12:45:37.148Z,974.4
2017-09-09T12:46:37.811Z,974.4
2017-09-09T12:47:38.473Z,974.4
2017-09-09T12:48:39.388Z,974.4
2017-09-09T12:49:40.050Z,974.4
2017-09-09T12:50:40.712Z,974.4
2017-09-09T12:51:41.375Z,974.3
2017-09-09T12:52:42.035Z,974.4
2017-09-09T12:53:42.998Z,974.3
2017-09-09T12:54:43.662Z,974.4
2017-09-09T12:55:44.324Z,974.4
2017-09-09T12:56:44.989Z,974.4
2017-09-09T12:57:45.650Z,974.4
2017-09-09T12:58:46.563Z,974.6
2017-09-09T12:59:47.225Z,974.6
2017-09-09T13:00:47.888Z,974.5
2017-09-09T13:01:48.551Z,974.5